createdAt,value
2023-05-14T00:02:13.408Z,99.90
2023-05-14T00:04:41.604Z,99.90
2023-05-14T00:07:11.689Z,99.90
2023-05-14T00:09:39.647Z,99.90
2023-05-14T00:12:07.747Z,99.90
2023-05-14T00:14:35.714Z,99.90
2023-05-14T00:17:03.686Z,99.90
2023-05-14T00:19:31.633Z,99.90
2023-05-14T00:21:59.629Z,99.90
2023-05-14T00:24:28.988Z,99.90
2023-05-14T00:26:57.203Z,99.90
2023-05-14T00:29:25.159Z,99.90
2023-05-14T00:31:53.265Z,99.90
2023-05-14T00:34:21.271Z,99.90
2023-05-14T00:36:49.279Z,99.90
2023-05-14T00:39:17.247Z,99.90
2023-05-14T00:41:46.567Z,99.90
2023-05-14T00:44:14.523Z,99.90
2023-05-14T00:46:43.765Z,99.90
2023-05-14T00:49:11.839Z,99.90
2023-05-14T00:51:41.466Z,99.90
2023-05-14T00:54:09.480Z,99.90
2023-05-14T00:56:37.433Z,99.90
2023-05-14T00:59:06.911Z,99.90
2023-05-14T01:01:34.957Z,99.90
2023-05-14T01:04:03.076Z,99.90
2023-05-14T01:06:36.983Z,99.90
2023-05-14T01:09:09.617Z,99.90
2023-05-14T01:11:41.260Z,99.90
2023-05-14T01:14:15.561Z,99.90
2023-05-14T01:16:43.924Z,99.90
2023-05-14T01:19:26.916Z,99.90
2023-05-14T01:21:56.391Z,99.90
2023-05-14T01:24:24.381Z,99.90
2023-05-14T01:26:52.444Z,99.90
2023-05-14T01:29:22.461Z,99.90
2023-05-14T01:31:52.052Z,99.90
2023-05-14T01:34:22.205Z,99.90
2023-05-14T01:36:50.900Z,99.90
2023-05-14T01:39:20.592Z,99.90
2023-05-14T01:41:49.301Z,99.90
2023-05-14T01:44:17.409Z,99.90
2023-05-14T01:46:45.368Z,99.90
2023-05-14T01:49:13.511Z,99.90
2023-05-14T01:51:41.466Z,99.90
2023-05-14T01:54:09.439Z,99.90
2023-05-14T01:56:38.811Z,99.90
2023-05-14T01:59:06.994Z,99.90
2023-05-14T02:01:35.055Z,99.90
2023-05-14T02:04:03.078Z,99.90
2023-05-14T02:06:31.633Z,99.90
2023-05-14T02:08:59.570Z,99.90
2023-05-14T02:11:27.546Z,99.90
2023-05-14T02:13:56.982Z,99.90
2023-05-14T02:16:24.964Z,99.90
2023-05-14T02:18:52.970Z,99.90
2023-05-14T02:21:21.019Z,99.90
2023-05-14T02:23:49.539Z,99.90
2023-05-14T02:26:17.648Z,99.90
2023-05-14T02:28:45.935Z,99.90
2023-05-14T02:31:15.534Z,99.90
2023-05-14T02:33:43.601Z,99.90
2023-05-14T02:36:11.633Z,99.90
2023-05-14T02:38:39.729Z,99.90
2023-05-14T02:41:07.661Z,99.90
2023-05-14T02:43:35.633Z,99.90
2023-05-14T02:46:03.739Z,99.90
2023-05-14T02:48:33.114Z,99.90
2023-05-14T02:51:01.323Z,99.90
2023-05-14T02:53:29.284Z,99.90
2023-05-14T02:55:57.269Z,99.90
2023-05-14T02:58:28.321Z,99.90
2023-05-14T03:00:56.673Z,99.90
2023-05-14T03:03:25.408Z,99.90
2023-05-14T03:05:55.171Z,99.90
2023-05-14T03:08:23.234Z,99.90
2023-05-14T03:10:51.195Z,99.90
2023-05-14T03:13:20.665Z,99.90
2023-05-14T03:15:48.760Z,99.90
2023-05-14T03:18:16.760Z,99.90
2023-05-14T03:20:44.730Z,99.90
2023-05-14T03:23:14.864Z,99.90
2023-05-14T03:25:42.853Z,99.90
2023-05-14T03:28:10.896Z,99.90
2023-05-14T03:30:38.869Z,99.90
2023-05-14T03:33:07.061Z,99.90
2023-05-14T03:35:35.178Z,99.90
2023-05-14T03:38:03.145Z,99.90
2023-05-14T03:40:32.524Z,99.90
2023-05-14T03:43:00.752Z,99.90
2023-05-14T03:45:30.412Z,99.90
2023-05-14T03:47:58.520Z,99.90
2023-05-14T03:50:26.674Z,99.90
2023-05-14T03:52:55.038Z,99.90
2023-05-14T03:55:23.040Z,99.90
2023-05-14T03:57:52.388Z,99.90
2023-05-14T04:00:21.324Z,99.90
2023-05-14T04:02:49.629Z,99.90
2023-05-14T04:05:17.792Z,99.90
2023-05-14T04:07:46.272Z,99.90
2023-05-14T04:10:14.503Z,99.90
2023-05-14T04:12:42.907Z,99.90
2023-05-14T04:15:12.613Z,99.90
2023-05-14T04:17:40.662Z,99.90
2023-05-14T04:20:09.113Z,99.90
2023-05-14T04:22:37.159Z,99.90
2023-05-14T04:25:05.634Z,99.90
2023-05-14T04:27:34.162Z,99.90
2023-05-14T04:30:02.276Z,99.90
2023-05-14T04:32:31.668Z,99.90
2023-05-14T04:34:59.735Z,99.90
2023-05-14T04:37:27.769Z,99.90
2023-05-14T04:39:57.558Z,99.90
2023-05-14T04:42:25.549Z,99.90
2023-05-14T04:44:53.526Z,99.90
2023-05-14T04:47:22.237Z,99.90
2023-05-14T04:49:51.739Z,99.90
2023-05-14T04:52:19.766Z,99.90
2023-05-14T04:54:47.866Z,99.90
2023-05-14T04:57:15.854Z,99.90
2023-05-14T04:59:43.818Z,99.90
2023-05-14T05:02:11.845Z,99.90
2023-05-14T05:04:39.901Z,99.90
2023-05-14T05:07:09.244Z,99.90
2023-05-14T05:09:37.218Z,99.90
2023-05-14T05:12:05.455Z,99.90
2023-05-14T05:14:33.498Z,99.90
2023-05-14T05:17:01.452Z,99.90
2023-05-14T05:19:42.504Z,99.90
2023-05-14T05:22:12.905Z,99.90
2023-05-14T05:24:40.913Z,99.90
2023-05-14T05:27:08.877Z,99.90
2023-05-14T05:29:36.887Z,99.90
2023-05-14T05:32:05.059Z,99.90
2023-05-14T05:34:33.160Z,99.90
2023-05-14T05:37:01.177Z,99.90
2023-05-14T05:39:34.646Z,99.90
2023-05-14T05:42:03.038Z,99.90
2023-05-14T05:44:31.052Z,99.90
2023-05-14T05:46:59.078Z,99.90
2023-05-14T05:49:27.127Z,99.90
2023-05-14T05:51:55.220Z,99.90
2023-05-14T05:54:23.976Z,99.90
2023-05-14T05:56:53.280Z,99.90
2023-05-14T05:59:21.644Z,99.90
2023-05-14T06:01:49.653Z,99.90
2023-05-14T06:04:17.726Z,99.90
2023-05-14T06:06:45.699Z,99.90
2023-05-14T06:09:13.673Z,99.90
2023-05-14T06:11:41.627Z,99.90
2023-05-14T06:14:11.049Z,99.90
2023-05-14T06:16:39.010Z,99.90
2023-05-14T06:19:08.397Z,99.90
2023-05-14T06:21:36.410Z,99.90
2023-05-14T06:24:04.451Z,99.90
2023-05-14T06:26:32.450Z,99.90
2023-05-14T06:29:00.411Z,99.90
2023-05-14T06:31:29.785Z,99.90
2023-05-14T06:33:57.774Z,99.90
2023-05-14T06:36:25.734Z,99.90
2023-05-14T06:38:53.774Z,99.90
2023-05-14T06:41:22.677Z,99.90
2023-05-14T06:43:50.617Z,99.90
2023-05-14T06:46:18.600Z,99.90
2023-05-14T06:48:47.990Z,99.90
2023-05-14T06:51:16.009Z,99.90
2023-05-14T06:53:43.972Z,99.90
2023-05-14T06:56:12.928Z,99.90
2023-05-14T06:58:40.980Z,99.90
2023-05-14T07:01:09.154Z,99.90
2023-05-14T07:03:37.149Z,99.90
2023-05-14T07:06:07.213Z,99.90
2023-05-14T07:08:35.192Z,99.90
2023-05-14T07:11:03.156Z,99.90
2023-05-14T07:13:31.163Z,99.90
2023-05-14T07:15:59.132Z,99.90
2023-05-14T07:18:27.127Z,99.90
2023-05-14T07:20:55.143Z,99.90
2023-05-14T07:23:24.482Z,99.90
2023-05-14T07:25:52.458Z,99.90
2023-05-14T07:28:20.446Z,99.90
2023-05-14T07:30:48.385Z,99.90
2023-05-14T07:33:16.353Z,99.90
2023-05-14T07:35:44.385Z,99.90
2023-05-14T07:38:12.377Z,99.90
2023-05-14T07:40:41.795Z,99.90
2023-05-14T07:43:09.793Z,99.90
2023-05-14T07:45:37.903Z,99.90
2023-05-14T07:48:06.110Z,99.90
2023-05-14T07:50:34.272Z,99.90
2023-05-14T07:53:02.219Z,99.90
2023-05-14T07:55:30.256Z,99.90
2023-05-14T07:57:59.581Z,99.90
2023-05-14T08:00:27.627Z,99.90
2023-05-14T08:02:56.165Z,99.90
2023-05-14T08:05:24.397Z,99.90
2023-05-14T08:07:52.394Z,99.90
2023-05-14T08:10:20.488Z,99.90
2023-05-14T08:12:48.455Z,99.90
2023-05-14T08:15:17.861Z,99.90
2023-05-14T08:17:48.922Z,99.90
2023-05-14T08:20:16.898Z,99.90
2023-05-14T08:22:44.973Z,99.90
2023-05-14T08:25:13.093Z,99.90
2023-05-14T08:27:41.143Z,99.90
2023-05-14T08:30:09.453Z,99.90
2023-05-14T08:32:39.424Z,99.90
2023-05-14T08:35:08.279Z,99.90
2023-05-14T08:37:36.261Z,99.90
2023-05-14T08:40:04.560Z,99.90
2023-05-14T08:42:32.717Z,99.90
2023-05-14T08:45:01.899Z,99.90
2023-05-14T08:47:30.314Z,99.90
2023-05-14T08:50:04.195Z,99.90
2023-05-14T08:52:32.233Z,99.90
2023-05-14T08:55:00.365Z,99.90
2023-05-14T08:57:29.036Z,99.90
2023-05-14T08:59:57.176Z,99.90
2023-05-14T09:02:28.635Z,99.90
2023-05-14T09:04:57.327Z,99.90
2023-05-14T09:07:26.995Z,99.90
2023-05-14T09:09:55.221Z,99.90
2023-05-14T09:12:23.524Z,99.90
2023-05-14T09:14:51.998Z,99.90
2023-05-14T09:17:20.625Z,99.90
2023-05-14T09:19:49.222Z,99.90
2023-05-14T09:22:18.255Z,99.90
2023-05-14T09:24:47.908Z,99.90
2023-05-14T09:27:20.082Z,99.90
2023-05-14T09:29:48.711Z,99.90
2023-05-14T09:32:16.647Z,99.90
2023-05-14T09:34:44.659Z,99.90
2023-05-14T09:37:12.642Z,99.90
2023-05-14T09:39:40.616Z,99.90
2023-05-14T09:42:09.986Z,99.90
2023-05-14T09:44:40.813Z,99.90
2023-05-14T09:47:08.977Z,99.90
2023-05-14T09:49:37.065Z,99.90
2023-05-14T09:52:07.403Z,99.90
2023-05-14T09:54:35.895Z,99.90
2023-05-14T09:57:03.877Z,99.90
2023-05-14T09:59:33.343Z,99.90
2023-05-14T10:02:01.660Z,99.90
2023-05-14T10:04:29.815Z,99.90
2023-05-14T10:06:57.907Z,99.90
2023-05-14T10:09:28.363Z,99.90
2023-05-14T10:12:00.126Z,99.90
2023-05-14T10:14:30.415Z,99.90
2023-05-14T10:17:00.478Z,99.90
2023-05-14T10:19:29.006Z,99.90
2023-05-14T10:21:57.672Z,99.90
2023-05-14T10:24:25.883Z,99.90
2023-05-14T10:26:54.574Z,99.90
2023-05-14T10:29:32.373Z,99.90
2023-05-14T10:32:04.652Z,99.90
2023-05-14T10:34:33.420Z,99.90
2023-05-14T10:37:02.215Z,99.90
2023-05-14T10:39:43.339Z,99.90
2023-05-14T10:42:12.339Z,99.90
2023-05-14T10:44:43.870Z,99.90
2023-05-14T10:47:13.313Z,99.90
2023-05-14T10:49:44.034Z,99.90
2023-05-14T10:52:12.925Z,99.90
2023-05-14T10:54:40.975Z,99.90
2023-05-14T10:57:12.078Z,99.90
2023-05-14T10:59:42.818Z,99.90
2023-05-14T11:02:21.552Z,99.90
2023-05-14T11:05:00.841Z,99.90
2023-05-14T11:07:29.536Z,99.90
2023-05-14T11:10:01.586Z,99.90
2023-05-14T11:12:30.034Z,99.90
2023-05-14T11:14:58.435Z,99.90
2023-05-14T11:17:28.487Z,99.90
2023-05-14T11:19:56.921Z,99.90
2023-05-14T11:22:25.462Z,99.90
2023-05-14T11:24:53.587Z,99.90
2023-05-14T11:27:22.658Z,99.90
2023-05-14T11:29:50.955Z,99.90
2023-05-14T11:32:19.380Z,99.90
2023-05-14T11:34:48.861Z,99.90
2023-05-14T11:37:17.373Z,99.90
2023-05-14T11:39:48.764Z,99.90
2023-05-14T11:42:18.643Z,99.90
2023-05-14T11:44:49.917Z,99.90
2023-05-14T11:47:18.505Z,99.90
2023-05-14T11:49:48.527Z,99.90
2023-05-14T11:52:19.402Z,99.90
2023-05-14T11:54:47.667Z,99.90
2023-05-14T11:57:16.920Z,99.90
2023-05-14T11:59:45.055Z,99.90
2023-05-14T12:02:13.691Z,99.90
2023-05-14T12:04:42.297Z,99.90
2023-05-14T12:07:12.295Z,99.90
2023-05-14T12:09:43.562Z,99.90
2023-05-14T12:12:13.368Z,99.90
2023-05-14T12:14:43.327Z,99.90
2023-05-14T12:17:12.889Z,99.90
2023-05-14T12:19:41.882Z,99.90
2023-05-14T12:22:11.507Z,99.90
2023-05-14T12:24:40.244Z,99.90
2023-05-14T12:27:09.085Z,99.90
2023-05-14T12:29:38.546Z,99.90
2023-05-14T12:32:09.280Z,99.90
2023-05-14T12:34:37.901Z,99.90
2023-05-14T12:37:06.431Z,99.90
2023-05-14T12:39:35.818Z,99.90
2023-05-14T12:42:03.817Z,99.90
2023-05-14T12:44:31.788Z,99.90
2023-05-14T12:46:59.954Z,99.90
2023-05-14T12:49:28.324Z,99.90
2023-05-14T12:52:07.659Z,99.90
2023-05-14T12:54:45.621Z,99.90
2023-05-14T12:57:13.805Z,99.90
2023-05-14T12:59:41.792Z,99.90
2023-05-14T13:02:09.820Z,99.90
2023-05-14T13:04:38.578Z,99.90
2023-05-14T13:07:08.855Z,99.90
2023-05-14T13:09:36.870Z,99.90
2023-05-14T13:12:06.923Z,99.90
2023-05-14T13:14:36.395Z,99.90
2023-05-14T13:17:05.336Z,99.90
2023-05-14T13:19:33.411Z,99.90
2023-05-14T13:22:01.424Z,99.90
2023-05-14T13:24:29.476Z,99.90
2023-05-14T13:26:57.564Z,99.90
2023-05-14T13:29:29.296Z,99.90
2023-05-14T13:31:57.341Z,99.90
2023-05-14T13:34:25.388Z,99.90
2023-05-14T13:36:53.410Z,99.90
2023-05-14T13:39:22.762Z,99.90
2023-05-14T13:41:51.002Z,99.90
2023-05-14T13:44:18.958Z,99.90
2023-05-14T13:46:48.473Z,99.90
2023-05-14T13:49:16.709Z,99.90
2023-05-14T13:51:44.714Z,99.90
2023-05-14T13:54:12.709Z,99.90
2023-05-14T13:56:40.751Z,99.90
2023-05-14T13:59:08.762Z,99.90
2023-05-14T14:01:36.760Z,99.90
2023-05-14T14:04:06.204Z,99.90
2023-05-14T14:06:34.238Z,99.90
2023-05-14T14:09:02.325Z,99.90
2023-05-14T14:11:30.324Z,99.90
2023-05-14T14:13:58.421Z,99.90
2023-05-14T14:16:26.500Z,99.90
2023-05-14T14:18:54.623Z,99.90
2023-05-14T14:21:24.120Z,99.90
2023-05-14T14:23:52.149Z,99.90
2023-05-14T14:26:20.270Z,99.40
2023-05-14T14:28:48.221Z,99.10
2023-05-14T14:31:17.190Z,99.90
2023-05-14T14:33:45.223Z,99.60
2023-05-14T14:36:13.206Z,99.30
2023-05-14T14:38:42.597Z,97.30
2023-05-14T14:41:10.664Z,98.70
2023-05-14T14:43:40.184Z,98.50
2023-05-14T14:46:08.743Z,97.70
2023-05-14T14:48:37.826Z,97.80
2023-05-14T14:51:06.439Z,96.80
2023-05-14T14:53:34.692Z,96.50
2023-05-14T14:56:04.080Z,96.20
2023-05-14T14:58:32.159Z,95.40
2023-05-14T15:01:00.224Z,95.90
2023-05-14T15:03:28.707Z,95.60
2023-05-14T15:05:57.014Z,96.00
2023-05-14T15:08:26.813Z,96.10
2023-05-14T15:10:54.861Z,96.10
2023-05-14T15:13:24.594Z,95.60
2023-05-14T15:15:53.006Z,96.30
2023-05-14T15:18:21.136Z,95.40
2023-05-14T15:20:49.216Z,96.30
2023-05-14T15:23:17.269Z,95.70
2023-05-14T15:25:45.373Z,95.60
2023-05-14T15:28:13.391Z,95.00
2023-05-14T15:30:42.752Z,95.10
2023-05-14T15:33:10.751Z,94.60
2023-05-14T15:35:39.162Z,93.30
2023-05-14T15:38:07.750Z,92.50
2023-05-14T15:40:35.932Z,92.10
2023-05-14T15:43:03.929Z,92.70
2023-05-14T15:45:31.861Z,93.50
2023-05-14T15:48:01.276Z,91.80
2023-05-14T15:50:29.338Z,91.30
2023-05-14T15:52:57.474Z,92.60
2023-05-14T15:55:25.444Z,93.40
2023-05-14T15:57:53.466Z,91.40
2023-05-14T16:00:21.909Z,92.10
2023-05-14T16:02:50.022Z,92.90
2023-05-14T16:05:19.574Z,92.70
2023-05-14T16:07:48.084Z,92.40
2023-05-14T16:10:16.170Z,92.20
2023-05-14T16:12:44.248Z,92.00
2023-05-14T16:15:12.572Z,92.70
2023-05-14T16:17:40.850Z,93.00
2023-05-14T16:20:09.602Z,93.20
2023-05-14T16:22:38.976Z,93.90
2023-05-14T16:25:07.341Z,94.40
2023-05-14T16:27:35.773Z,94.60
2023-05-14T16:30:04.499Z,95.00
2023-05-14T16:32:34.080Z,95.30
2023-05-14T16:35:02.913Z,95.40
2023-05-14T16:37:32.326Z,95.50
2023-05-14T16:40:01.738Z,95.50
2023-05-14T16:42:30.112Z,95.80
2023-05-14T16:44:58.056Z,96.30
2023-05-14T16:47:26.030Z,96.50
2023-05-14T16:49:53.992Z,96.50
2023-05-14T16:52:22.014Z,96.90
2023-05-14T16:54:50.153Z,97.00
2023-05-14T16:57:19.460Z,97.40
2023-05-14T16:59:47.480Z,97.80
2023-05-14T17:02:16.276Z,97.70
2023-05-14T17:04:44.417Z,97.80
2023-05-14T17:07:12.594Z,96.20
2023-05-14T17:09:40.810Z,96.20
2023-05-14T17:12:09.607Z,96.20
2023-05-14T17:14:39.007Z,95.30
2023-05-14T17:17:06.962Z,94.40
2023-05-14T17:19:34.931Z,94.60
2023-05-14T17:22:05.712Z,94.90
2023-05-14T17:24:35.033Z,94.50
2023-05-14T17:27:03.123Z,95.20
2023-05-14T17:29:31.119Z,94.90
2023-05-14T17:32:00.755Z,95.60
2023-05-14T17:34:28.769Z,95.60
2023-05-14T17:36:56.804Z,95.60
2023-05-14T17:39:24.825Z,95.20
2023-05-14T17:41:53.054Z,95.50
2023-05-14T17:44:21.066Z,95.20
2023-05-14T17:46:49.700Z,95.30
2023-05-14T17:49:19.132Z,95.20
2023-05-14T17:51:47.152Z,95.90
2023-05-14T17:54:15.406Z,95.80
2023-05-14T17:56:43.511Z,96.10
2023-05-14T17:59:11.456Z,96.00
2023-05-14T18:01:39.418Z,96.00
2023-05-14T18:04:07.503Z,95.80
2023-05-14T18:06:36.966Z,96.10
2023-05-14T18:09:05.034Z,96.40
2023-05-14T18:11:34.010Z,96.40
2023-05-14T18:14:02.156Z,96.50
2023-05-14T18:16:30.340Z,97.00
2023-05-14T18:18:58.469Z,97.80
2023-05-14T18:21:26.552Z,98.40
2023-05-14T18:23:56.007Z,98.80
2023-05-14T18:26:24.026Z,99.30
2023-05-14T18:28:52.511Z,99.80
2023-05-14T18:31:20.612Z,99.90
2023-05-14T18:33:48.600Z,99.90
2023-05-14T18:36:16.723Z,99.90
2023-05-14T18:38:44.662Z,99.90
2023-05-14T18:41:13.978Z,99.90
2023-05-14T18:43:41.924Z,99.90
2023-05-14T18:46:11.136Z,99.90
2023-05-14T18:48:39.169Z,99.90
2023-05-14T18:51:07.565Z,99.90
2023-05-14T18:53:35.537Z,99.90
2023-05-14T18:56:03.594Z,99.90
2023-05-14T18:58:32.941Z,99.90
2023-05-14T19:01:00.906Z,99.90
2023-05-14T19:03:28.967Z,99.90
2023-05-14T19:05:57.658Z,99.90
2023-05-14T19:08:25.612Z,99.90
2023-05-14T19:10:53.712Z,99.90
2023-05-14T19:13:21.639Z,99.90
2023-05-14T19:15:51.189Z,99.90
2023-05-14T19:18:19.155Z,99.90
2023-05-14T19:20:47.230Z,99.90
2023-05-14T19:23:15.232Z,99.90
2023-05-14T19:25:43.210Z,99.90
2023-05-14T19:28:11.302Z,99.90
2023-05-14T19:30:39.330Z,99.90
2023-05-14T19:33:08.830Z,99.90
2023-05-14T19:35:36.911Z,99.90
2023-05-14T19:38:04.877Z,99.90
2023-05-14T19:40:32.864Z,99.90
2023-05-14T19:43:00.954Z,99.90
2023-05-14T19:45:28.950Z,99.90
2023-05-14T19:47:57.316Z,99.90
2023-05-14T19:50:26.654Z,99.90
2023-05-14T19:52:54.683Z,99.90
2023-05-14T19:55:22.863Z,99.90
2023-05-14T19:57:51.029Z,99.90
2023-05-14T20:00:19.185Z,99.90
2023-05-14T20:02:47.942Z,99.90
2023-05-14T20:05:16.598Z,99.90
2023-05-14T20:07:48.914Z,99.90
2023-05-14T20:10:16.884Z,99.90
2023-05-14T20:12:44.870Z,99.90
2023-05-14T20:15:12.829Z,99.90
2023-05-14T20:17:40.889Z,99.90
2023-05-14T20:20:09.999Z,99.90
2023-05-14T20:22:38.610Z,99.90
2023-05-14T20:25:08.934Z,99.90
2023-05-14T20:27:36.932Z,99.90
2023-05-14T20:30:05.442Z,99.90
2023-05-14T20:32:33.454Z,99.90
2023-05-14T20:35:02.160Z,99.90
2023-05-14T20:37:31.195Z,99.90
2023-05-14T20:39:59.461Z,99.90
2023-05-14T20:42:28.871Z,99.90
2023-05-14T20:44:56.849Z,99.90
2023-05-14T20:47:28.936Z,99.90
2023-05-14T20:49:56.927Z,99.90
2023-05-14T20:52:24.883Z,99.90
2023-05-14T20:54:52.978Z,99.90
2023-05-14T20:57:21.075Z,99.90
2023-05-14T20:59:50.494Z,99.90
2023-05-14T21:02:18.635Z,99.90
2023-05-14T21:04:47.156Z,99.90
2023-05-14T21:07:15.332Z,99.90
2023-05-14T21:09:46.404Z,99.90
2023-05-14T21:12:14.494Z,99.90
2023-05-14T21:14:42.729Z,99.90
2023-05-14T21:17:12.407Z,99.90
2023-05-14T21:19:40.441Z,99.90
2023-05-14T21:22:08.473Z,99.90
2023-05-14T21:24:36.409Z,99.90
2023-05-14T21:27:04.560Z,99.90
2023-05-14T21:29:32.600Z,99.90
2023-05-14T21:32:00.677Z,99.90
2023-05-14T21:34:31.835Z,99.90
2023-05-14T21:37:00.491Z,99.90
2023-05-14T21:39:28.478Z,99.90
2023-05-14T21:41:56.433Z,99.90
2023-05-14T21:44:24.365Z,99.90
2023-05-14T21:46:52.382Z,99.90
2023-05-14T21:49:20.367Z,99.90
2023-05-14T21:51:52.888Z,99.90
2023-05-14T21:54:20.989Z,99.90
2023-05-14T21:56:49.237Z,99.90
2023-05-14T21:59:17.252Z,99.90
2023-05-14T22:02:05.311Z,99.90
2023-05-14T22:04:33.483Z,99.90
2023-05-14T22:07:02.798Z,99.90
2023-05-14T22:09:31.272Z,99.90
2023-05-14T22:11:59.276Z,99.90
2023-05-14T22:14:27.614Z,99.90
2023-05-14T22:16:55.836Z,99.90
2023-05-14T22:19:23.902Z,99.90
2023-05-14T22:21:51.870Z,99.90
2023-05-14T22:24:21.201Z,99.90
2023-05-14T22:26:49.161Z,99.90
2023-05-14T22:29:17.171Z,99.90
2023-05-14T22:31:45.234Z,99.90
2023-05-14T22:34:13.255Z,99.90
2023-05-14T22:36:41.212Z,99.90
2023-05-14T22:39:10.132Z,99.90
2023-05-14T22:41:40.708Z,99.90
2023-05-14T22:44:08.682Z,99.90
2023-05-14T22:46:36.717Z,99.90
2023-05-14T22:49:04.710Z,99.90
2023-05-14T22:51:32.695Z,99.90
2023-05-14T22:54:00.643Z,99.90
2023-05-14T22:56:28.949Z,99.90
2023-05-14T22:59:01.381Z,99.90
2023-05-14T23:01:29.589Z,99.90
2023-05-14T23:03:57.678Z,99.90
2023-05-14T23:06:25.760Z,99.90
2023-05-14T23:08:53.867Z,99.90
2023-05-14T23:11:22.416Z,99.90
2023-05-14T23:13:50.527Z,99.90
2023-05-14T23:16:20.454Z,99.90
2023-05-14T23:18:48.525Z,99.90
2023-05-14T23:21:16.590Z,99.90
2023-05-14T23:23:45.418Z,99.90
2023-05-14T23:26:13.503Z,99.90
2023-05-14T23:28:41.650Z,99.90
2023-05-14T23:31:09.594Z,99.90
2023-05-14T23:33:39.824Z,99.90
2023-05-14T23:36:10.746Z,99.90
2023-05-14T23:38:38.772Z,99.90
2023-05-14T23:41:06.738Z,99.90
2023-05-14T23:43:34.724Z,99.90
2023-05-14T23:46:05.234Z,99.90
2023-05-14T23:48:33.469Z,99.90
2023-05-14T23:51:05.715Z,99.90
2023-05-14T23:53:33.697Z,99.90
2023-05-14T23:56:01.631Z,99.90
2023-05-14T23:58:30.351Z,99.90
